Terminal Aerodrome Forecast
Issued by NWS Charleston, WV

Current Version | Previous Version | Graphics & Text | Print | Product List | Glossary On
Versions: 1 2 3 4 5 6 7 8 9 10 11 12 13 14 15 16 17 18 19 20 21 22
000
FTUS41 KRLX 230233 AAA
TAFCRW
TAF AMD
KCRW 230233Z 2303/2324 26004KT P6SM SCT110
     FM230600 00000KT P6SM SCT050
     FM231000 00000KT P6SM FEW130
     FM231800 VRB04KT P6SM SCT050=

USA.gov is the U.S. government's official web portal to all federal, state and local government web resources and services.